sensor_id;sensor_type;location;lat;lon;timestamp;P1;durP1;ratioP1;P2;durP2;ratioP2
71496;SDS011;59317;53.218;5.730;2022-12-10T00:01:07;376.90;;;40.38;;
71496;SDS011;59317;53.218;5.730;2022-12-10T00:03:33;253.23;;;38.67;;
71496;SDS011;59317;53.218;5.730;2022-12-10T00:06:00;251.13;;;38.80;;
71496;SDS011;59317;53.218;5.730;2022-12-10T00:08:26;222.73;;;42.93;;
71496;SDS011;59317;53.218;5.730;2022-12-10T00:10:52;246.45;;;41.42;;
71496;SDS011;59317;53.218;5.730;2022-12-10T00:13:18;249.02;;;41.47;;
71496;SDS011;59317;53.218;5.730;2022-12-10T00:15:44;261.02;;;45.00;;
71496;SDS011;59317;53.218;5.730;2022-12-10T00:18:11;255.68;;;43.13;;
71496;SDS011;59317;53.218;5.730;2022-12-10T00:20:37;202.80;;;42.03;;
71496;SDS011;59317;53.218;5.730;2022-12-10T00:23:03;202.07;;;42.30;;
71496;SDS011;59317;53.218;5.730;2022-12-10T00:25:31;231.75;;;45.17;;
71496;SDS011;59317;53.218;5.730;2022-12-10T00:27:57;234.15;;;45.50;;
71496;SDS011;59317;53.218;5.730;2022-12-10T00:30:23;196.05;;;44.47;;
71496;SDS011;59317;53.218;5.730;2022-12-10T00:32:49;178.57;;;41.65;;
71496;SDS011;59317;53.218;5.730;2022-12-10T00:35:15;176.77;;;44.92;;
71496;SDS011;59317;53.218;5.730;2022-12-10T00:37:41;188.00;;;48.35;;
71496;SDS011;59317;53.218;5.730;2022-12-10T00:40:07;178.57;;;42.30;;
71496;SDS011;59317;53.218;5.730;2022-12-10T00:42:35;182.30;;;44.17;;
71496;SDS011;59317;53.218;5.730;2022-12-10T00:45:02;160.90;;;43.97;;
71496;SDS011;59317;53.218;5.730;2022-12-10T00:47:28;169.93;;;43.22;;
71496;SDS011;59317;53.218;5.730;2022-12-10T00:49:54;156.68;;;43.58;;
71496;SDS011;59317;53.218;5.730;2022-12-10T00:52:20;158.40;;;42.07;;
71496;SDS011;59317;53.218;5.730;2022-12-10T00:54:46;164.83;;;41.10;;
71496;SDS011;59317;53.218;5.730;2022-12-10T00:57:12;176.85;;;45.25;;
71496;SDS011;59317;53.218;5.730;2022-12-10T00:59:38;154.63;;;42.58;;
71496;SDS011;59317;53.218;5.730;2022-12-10T01:02:04;148.40;;;40.42;;
71496;SDS011;59317;53.218;5.730;2022-12-10T01:04:30;163.23;;;41.55;;
71496;SDS011;59317;53.218;5.730;2022-12-10T01:06:56;167.88;;;43.65;;
71496;SDS011;59317;53.218;5.730;2022-12-10T01:09:24;148.38;;;40.83;;
71496;SDS011;59317;53.218;5.730;2022-12-10T01:11:51;167.23;;;43.30;;
71496;SDS011;59317;53.218;5.730;2022-12-10T01:14:22;166.95;;;44.67;;
71496;SDS011;59317;53.218;5.730;2022-12-10T01:16:48;162.35;;;43.38;;
71496;SDS011;59317;53.218;5.730;2022-12-10T01:19:14;167.70;;;41.83;;
71496;SDS011;59317;53.218;5.730;2022-12-10T01:21:40;185.80;;;45.17;;
71496;SDS011;59317;53.218;5.730;2022-12-10T01:24:07;171.35;;;40.08;;
71496;SDS011;59317;53.218;5.730;2022-12-10T01:26:34;143.93;;;35.70;;
71496;SDS011;59317;53.218;5.730;2022-12-10T01:29:00;101.40;;;27.97;;
71496;SDS011;59317;53.218;5.730;2022-12-10T01:31:31;66.85;;;23.88;;
71496;SDS011;59317;53.218;5.730;2022-12-10T01:33:57;152.97;;;42.00;;
71496;SDS011;59317;53.218;5.730;2022-12-10T01:36:28;171.88;;;43.00;;
71496;SDS011;59317;53.218;5.730;2022-12-10T01:38:54;183.80;;;44.33;;
71496;SDS011;59317;53.218;5.730;2022-12-10T01:41:21;80.53;;;26.52;;
71496;SDS011;59317;53.218;5.730;2022-12-10T01:46:17;120.93;;;33.13;;
71496;SDS011;59317;53.218;5.730;2022-12-10T01:48:43;141.95;;;37.40;;
71496;SDS011;59317;53.218;5.730;2022-12-10T01:51:10;152.00;;;38.58;;
71496;SDS011;59317;53.218;5.730;2022-12-10T01:53:37;164.48;;;41.30;;
71496;SDS011;59317;53.218;5.730;2022-12-10T01:56:03;161.48;;;43.05;;
71496;SDS011;59317;53.218;5.730;2022-12-10T01:58:29;106.20;;;30.33;;
71496;SDS011;59317;53.218;5.730;2022-12-10T02:04:17;146.48;;;39.58;;
71496;SDS011;59317;53.218;5.730;2022-12-10T02:11:40;203.52;;;42.35;;
71496;SDS011;59317;53.218;5.730;2022-12-10T02:14:12;188.02;;;43.53;;
71496;SDS011;59317;53.218;5.730;2022-12-10T02:16:40;173.57;;;42.67;;
71496;SDS011;59317;53.218;5.730;2022-12-10T02:21:38;186.13;;;48.78;;
71496;SDS011;59317;53.218;5.730;2022-12-10T02:24:06;154.75;;;39.70;;
71496;SDS011;59317;53.218;5.730;2022-12-10T02:29:21;183.35;;;43.22;;
71496;SDS011;59317;53.218;5.730;2022-12-10T02:32:03;169.70;;;42.15;;
71496;SDS011;59317;53.218;5.730;2022-12-10T02:34:30;177.43;;;40.70;;
71496;SDS011;59317;53.218;5.730;2022-12-10T02:36:58;181.47;;;41.50;;
71496;SDS011;59317;53.218;5.730;2022-12-10T02:39:27;141.13;;;36.85;;
71496;SDS011;59317;53.218;5.730;2022-12-10T02:41:55;156.75;;;39.50;;
71496;SDS011;59317;53.218;5.730;2022-12-10T02:44:23;184.82;;;40.70;;
71496;SDS011;59317;53.218;5.730;2022-12-10T02:46:52;181.05;;;40.35;;
71496;SDS011;59317;53.218;5.730;2022-12-10T02:49:18;170.10;;;41.28;;
71496;SDS011;59317;53.218;5.730;2022-12-10T02:51:45;192.35;;;42.22;;
71496;SDS011;59317;53.218;5.730;2022-12-10T02:56:58;170.02;;;40.13;;
71496;SDS011;59317;53.218;5.730;2022-12-10T02:59:33;172.32;;;40.95;;
71496;SDS011;59317;53.218;5.730;2022-12-10T03:02:11;185.85;;;43.38;;
71496;SDS011;59317;53.218;5.730;2022-12-10T03:04:53;175.30;;;42.97;;
71496;SDS011;59317;53.218;5.730;2022-12-10T03:07:23;155.23;;;39.15;;
71496;SDS011;59317;53.218;5.730;2022-12-10T03:10:00;213.43;;;47.90;;
71496;SDS011;59317;53.218;5.730;2022-12-10T03:12:38;218.73;;;46.47;;
71496;SDS011;59317;53.218;5.730;2022-12-10T03:15:07;196.43;;;43.70;;
71496;SDS011;59317;53.218;5.730;2022-12-10T03:17:34;201.80;;;44.53;;
71496;SDS011;59317;53.218;5.730;2022-12-10T03:20:02;195.45;;;42.58;;
71496;SDS011;59317;53.218;5.730;2022-12-10T03:22:29;185.38;;;41.20;;
71496;SDS011;59317;53.218;5.730;2022-12-10T03:24:56;200.48;;;40.30;;
71496;SDS011;59317;53.218;5.730;2022-12-10T03:27:25;288.23;;;48.22;;
71496;SDS011;59317;53.218;5.730;2022-12-10T03:29:53;258.00;;;44.30;;
71496;SDS011;59317;53.218;5.730;2022-12-10T03:32:20;242.13;;;43.67;;
71496;SDS011;59317;53.218;5.730;2022-12-10T03:34:47;224.93;;;42.40;;
71496;SDS011;59317;53.218;5.730;2022-12-10T03:37:14;248.20;;;43.88;;
71496;SDS011;59317;53.218;5.730;2022-12-10T03:39:40;284.00;;;48.75;;
71496;SDS011;59317;53.218;5.730;2022-12-10T03:42:07;263.60;;;41.70;;
71496;SDS011;59317;53.218;5.730;2022-12-10T03:44:34;273.13;;;46.53;;
71496;SDS011;59317;53.218;5.730;2022-12-10T03:47:01;290.15;;;44.40;;
71496;SDS011;59317;53.218;5.730;2022-12-10T03:49:27;416.53;;;47.97;;
71496;SDS011;59317;53.218;5.730;2022-12-10T03:51:53;388.92;;;49.60;;
71496;SDS011;59317;53.218;5.730;2022-12-10T03:54:19;388.85;;;46.05;;
71496;SDS011;59317;53.218;5.730;2022-12-10T03:56:45;415.20;;;45.75;;
71496;SDS011;59317;53.218;5.730;2022-12-10T03:59:11;322.08;;;35.60;;
71496;SDS011;59317;53.218;5.730;2022-12-10T04:01:37;383.17;;;44.28;;
71496;SDS011;59317;53.218;5.730;2022-12-10T04:04:04;368.73;;;42.35;;
71496;SDS011;59317;53.218;5.730;2022-12-10T04:06:30;467.17;;;47.78;;
71496;SDS011;59317;53.218;5.730;2022-12-10T04:08:56;410.52;;;41.53;;
71496;SDS011;59317;53.218;5.730;2022-12-10T04:11:22;449.00;;;45.10;;
71496;SDS011;59317;53.218;5.730;2022-12-10T04:13:48;433.15;;;43.55;;
71496;SDS011;59317;53.218;5.730;2022-12-10T04:16:34;413.65;;;42.63;;
71496;SDS011;59317;53.218;5.730;2022-12-10T04:19:01;369.38;;;39.13;;
71496;SDS011;59317;53.218;5.730;2022-12-10T04:21:28;490.20;;;44.63;;
71496;SDS011;59317;53.218;5.730;2022-12-10T04:24:13;530.00;;;49.00;;
71496;SDS011;59317;53.218;5.730;2022-12-10T04:26:59;476.85;;;46.08;;
71496;SDS011;59317;53.218;5.730;2022-12-10T04:29:28;539.38;;;46.30;;
71496;SDS011;59317;53.218;5.730;2022-12-10T04:31:55;480.98;;;43.85;;
71496;SDS011;59317;53.218;5.730;2022-12-10T04:34:21;490.88;;;45.30;;
71496;SDS011;59317;53.218;5.730;2022-12-10T04:36:47;465.52;;;43.17;;
71496;SDS011;59317;53.218;5.730;2022-12-10T04:39:13;429.05;;;38.42;;
71496;SDS011;59317;53.218;5.730;2022-12-10T04:41:40;420.70;;;36.25;;
71496;SDS011;59317;53.218;5.730;2022-12-10T04:44:07;425.58;;;39.53;;
71496;SDS011;59317;53.218;5.730;2022-12-10T04:46:33;432.88;;;41.65;;
71496;SDS011;59317;53.218;5.730;2022-12-10T04:48:59;389.38;;;33.88;;
71496;SDS011;59317;53.218;5.730;2022-12-10T04:51:26;338.35;;;32.22;;
71496;SDS011;59317;53.218;5.730;2022-12-10T04:53:52;386.05;;;33.42;;
71496;SDS011;59317;53.218;5.730;2022-12-10T04:56:18;361.75;;;31.45;;
71496;SDS011;59317;53.218;5.730;2022-12-10T04:58:44;410.00;;;37.40;;
71496;SDS011;59317;53.218;5.730;2022-12-10T05:01:10;354.40;;;31.17;;
71496;SDS011;59317;53.218;5.730;2022-12-10T05:03:37;341.92;;;31.63;;
71496;SDS011;59317;53.218;5.730;2022-12-10T05:06:04;348.40;;;31.80;;
71496;SDS011;59317;53.218;5.730;2022-12-10T05:08:31;355.30;;;32.83;;
71496;SDS011;59317;53.218;5.730;2022-12-10T05:11:00;375.00;;;32.78;;
71496;SDS011;59317;53.218;5.730;2022-12-10T05:13:27;386.08;;;35.65;;
71496;SDS011;59317;53.218;5.730;2022-12-10T05:15:53;305.37;;;29.17;;
71496;SDS011;59317;53.218;5.730;2022-12-10T05:18:19;337.48;;;30.80;;
71496;SDS011;59317;53.218;5.730;2022-12-10T05:20:45;335.70;;;32.38;;
71496;SDS011;59317;53.218;5.730;2022-12-10T05:23:11;337.13;;;31.70;;
71496;SDS011;59317;53.218;5.730;2022-12-10T05:26:02;340.90;;;35.78;;
71496;SDS011;59317;53.218;5.730;2022-12-10T05:28:29;313.92;;;28.05;;
71496;SDS011;59317;53.218;5.730;2022-12-10T05:30:56;382.73;;;35.58;;
71496;SDS011;59317;53.218;5.730;2022-12-10T05:33:22;357.88;;;34.45;;
71496;SDS011;59317;53.218;5.730;2022-12-10T05:35:56;378.20;;;35.03;;
71496;SDS011;59317;53.218;5.730;2022-12-10T05:38:23;346.80;;;31.80;;
71496;SDS011;59317;53.218;5.730;2022-12-10T05:40:49;370.45;;;34.35;;
71496;SDS011;59317;53.218;5.730;2022-12-10T05:43:15;353.38;;;32.28;;
71496;SDS011;59317;53.218;5.730;2022-12-10T05:45:41;405.20;;;39.10;;
71496;SDS011;59317;53.218;5.730;2022-12-10T05:48:09;381.43;;;34.80;;
71496;SDS011;59317;53.218;5.730;2022-12-10T05:50:35;349.02;;;32.95;;
71496;SDS011;59317;53.218;5.730;2022-12-10T05:53:00;390.85;;;37.05;;
71496;SDS011;59317;53.218;5.730;2022-12-10T05:55:26;358.98;;;35.38;;
71496;SDS011;59317;53.218;5.730;2022-12-10T05:57:54;429.13;;;39.13;;
71496;SDS011;59317;53.218;5.730;2022-12-10T06:00:20;395.15;;;38.55;;
71496;SDS011;59317;53.218;5.730;2022-12-10T06:02:48;374.30;;;39.75;;
71496;SDS011;59317;53.218;5.730;2022-12-10T06:05:14;376.67;;;34.03;;
71496;SDS011;59317;53.218;5.730;2022-12-10T06:07:40;348.33;;;35.72;;
71496;SDS011;59317;53.218;5.730;2022-12-10T06:10:06;344.02;;;37.20;;
71496;SDS011;59317;53.218;5.730;2022-12-10T06:12:32;361.27;;;37.15;;
71496;SDS011;59317;53.218;5.730;2022-12-10T06:14:58;410.02;;;38.13;;
71496;SDS011;59317;53.218;5.730;2022-12-10T06:17:25;431.40;;;37.23;;
71496;SDS011;59317;53.218;5.730;2022-12-10T06:19:51;331.10;;;35.17;;
71496;SDS011;59317;53.218;5.730;2022-12-10T06:22:17;405.93;;;35.67;;
71496;SDS011;59317;53.218;5.730;2022-12-10T06:24:43;443.70;;;39.23;;
71496;SDS011;59317;53.218;5.730;2022-12-10T06:27:09;513.63;;;43.67;;
71496;SDS011;59317;53.218;5.730;2022-12-10T06:29:35;498.67;;;39.97;;
71496;SDS011;59317;53.218;5.730;2022-12-10T06:32:01;394.85;;;37.20;;
71496;SDS011;59317;53.218;5.730;2022-12-10T06:34:27;407.10;;;39.30;;
71496;SDS011;59317;53.218;5.730;2022-12-10T06:36:53;444.13;;;38.13;;
71496;SDS011;59317;53.218;5.730;2022-12-10T06:39:19;377.65;;;34.40;;
71496;SDS011;59317;53.218;5.730;2022-12-10T06:41:45;406.17;;;36.65;;
71496;SDS011;59317;53.218;5.730;2022-12-10T06:44:11;419.10;;;39.30;;
71496;SDS011;59317;53.218;5.730;2022-12-10T06:46:39;350.13;;;36.05;;
71496;SDS011;59317;53.218;5.730;2022-12-10T06:49:05;391.45;;;37.80;;
71496;SDS011;59317;53.218;5.730;2022-12-10T06:51:31;305.73;;;29.70;;
71496;SDS011;59317;53.218;5.730;2022-12-10T06:53:57;417.70;;;39.92;;
71496;SDS011;59317;53.218;5.730;2022-12-10T06:56:23;329.63;;;32.90;;
71496;SDS011;59317;53.218;5.730;2022-12-10T06:58:49;413.98;;;38.35;;
71496;SDS011;59317;53.218;5.730;2022-12-10T07:01:20;358.23;;;36.28;;
71496;SDS011;59317;53.218;5.730;2022-12-10T07:03:50;373.55;;;33.50;;
71496;SDS011;59317;53.218;5.730;2022-12-10T07:06:16;436.23;;;37.33;;
71496;SDS011;59317;53.218;5.730;2022-12-10T07:08:42;472.73;;;36.75;;
71496;SDS011;59317;53.218;5.730;2022-12-10T07:11:12;458.02;;;36.95;;
71496;SDS011;59317;53.218;5.730;2022-12-10T07:13:38;368.00;;;31.60;;
71496;SDS011;59317;53.218;5.730;2022-12-10T07:16:14;400.55;;;33.00;;
71496;SDS011;59317;53.218;5.730;2022-12-10T07:18:40;377.10;;;34.08;;
71496;SDS011;59317;53.218;5.730;2022-12-10T07:21:20;399.35;;;37.00;;
71496;SDS011;59317;53.218;5.730;2022-12-10T07:23:46;396.00;;;33.63;;
71496;SDS011;59317;53.218;5.730;2022-12-10T07:26:13;401.60;;;32.97;;
71496;SDS011;59317;53.218;5.730;2022-12-10T07:28:39;374.00;;;32.28;;
71496;SDS011;59317;53.218;5.730;2022-12-10T07:31:07;297.17;;;29.02;;
71496;SDS011;59317;53.218;5.730;2022-12-10T07:33:34;260.63;;;25.55;;
71496;SDS011;59317;53.218;5.730;2022-12-10T07:36:04;365.55;;;27.90;;
71496;SDS011;59317;53.218;5.730;2022-12-10T07:38:30;324.80;;;27.10;;
71496;SDS011;59317;53.218;5.730;2022-12-10T07:40:57;408.60;;;32.40;;
71496;SDS011;59317;53.218;5.730;2022-12-10T07:43:23;439.52;;;34.67;;
71496;SDS011;59317;53.218;5.730;2022-12-10T07:45:49;386.83;;;29.75;;
71496;SDS011;59317;53.218;5.730;2022-12-10T07:48:15;320.13;;;26.27;;
71496;SDS011;59317;53.218;5.730;2022-12-10T07:50:41;321.13;;;25.80;;
71496;SDS011;59317;53.218;5.730;2022-12-10T07:53:07;365.08;;;28.20;;
71496;SDS011;59317;53.218;5.730;2022-12-10T07:55:33;405.20;;;32.53;;
71496;SDS011;59317;53.218;5.730;2022-12-10T07:57:59;366.20;;;31.23;;
71496;SDS011;59317;53.218;5.730;2022-12-10T08:00:28;359.63;;;29.15;;
71496;SDS011;59317;53.218;5.730;2022-12-10T08:02:54;365.53;;;32.33;;
71496;SDS011;59317;53.218;5.730;2022-12-10T08:05:22;355.20;;;32.53;;
71496;SDS011;59317;53.218;5.730;2022-12-10T08:07:48;287.65;;;28.45;;
71496;SDS011;59317;53.218;5.730;2022-12-10T08:10:14;337.58;;;30.98;;
71496;SDS011;59317;53.218;5.730;2022-12-10T08:12:40;286.45;;;27.48;;
71496;SDS011;59317;53.218;5.730;2022-12-10T08:15:06;311.25;;;27.75;;
71496;SDS011;59317;53.218;5.730;2022-12-10T08:17:34;324.33;;;28.10;;
71496;SDS011;59317;53.218;5.730;2022-12-10T08:20:00;361.47;;;30.00;;
71496;SDS011;59317;53.218;5.730;2022-12-10T08:22:26;364.83;;;30.37;;
71496;SDS011;59317;53.218;5.730;2022-12-10T08:24:52;367.53;;;30.10;;
71496;SDS011;59317;53.218;5.730;2022-12-10T08:27:18;394.38;;;30.33;;
71496;SDS011;59317;53.218;5.730;2022-12-10T08:29:44;380.75;;;31.52;;
71496;SDS011;59317;53.218;5.730;2022-12-10T08:32:10;365.98;;;29.90;;
71496;SDS011;59317;53.218;5.730;2022-12-10T08:34:36;363.42;;;28.50;;
71496;SDS011;59317;53.218;5.730;2022-12-10T08:37:02;346.60;;;29.20;;
71496;SDS011;59317;53.218;5.730;2022-12-10T08:39:28;391.88;;;31.55;;
71496;SDS011;59317;53.218;5.730;2022-12-10T08:41:57;435.92;;;35.47;;
71496;SDS011;59317;53.218;5.730;2022-12-10T08:44:23;302.05;;;26.60;;
71496;SDS011;59317;53.218;5.730;2022-12-10T08:46:49;347.58;;;34.47;;
71496;SDS011;59317;53.218;5.730;2022-12-10T08:49:15;291.08;;;29.42;;
71496;SDS011;59317;53.218;5.730;2022-12-10T08:51:41;366.08;;;30.63;;
71496;SDS011;59317;53.218;5.730;2022-12-10T08:54:07;391.67;;;30.20;;
71496;SDS011;59317;53.218;5.730;2022-12-10T08:56:34;293.35;;;27.25;;
71496;SDS011;59317;53.218;5.730;2022-12-10T08:59:00;337.38;;;28.65;;
71496;SDS011;59317;53.218;5.730;2022-12-10T09:01:26;315.88;;;27.40;;
71496;SDS011;59317;53.218;5.730;2022-12-10T09:03:52;371.75;;;31.25;;
71496;SDS011;59317;53.218;5.730;2022-12-10T09:06:19;297.73;;;28.80;;
71496;SDS011;59317;53.218;5.730;2022-12-10T09:08:46;313.15;;;29.67;;
71496;SDS011;59317;53.218;5.730;2022-12-10T09:11:20;328.02;;;30.25;;
71496;SDS011;59317;53.218;5.730;2022-12-10T09:13:46;282.00;;;26.33;;
71496;SDS011;59317;53.218;5.730;2022-12-10T09:16:13;316.27;;;30.03;;
71496;SDS011;59317;53.218;5.730;2022-12-10T09:18:39;354.23;;;36.25;;
71496;SDS011;59317;53.218;5.730;2022-12-10T09:21:06;346.45;;;30.88;;
71496;SDS011;59317;53.218;5.730;2022-12-10T09:23:32;403.73;;;34.10;;
71496;SDS011;59317;53.218;5.730;2022-12-10T09:25:58;371.27;;;35.30;;
71496;SDS011;59317;53.218;5.730;2022-12-10T09:28:24;349.25;;;31.42;;
71496;SDS011;59317;53.218;5.730;2022-12-10T09:31:00;345.65;;;31.08;;
71496;SDS011;59317;53.218;5.730;2022-12-10T09:33:27;328.33;;;30.20;;
71496;SDS011;59317;53.218;5.730;2022-12-10T09:35:53;257.25;;;27.85;;
71496;SDS011;59317;53.218;5.730;2022-12-10T09:38:19;271.38;;;27.20;;
71496;SDS011;59317;53.218;5.730;2022-12-10T09:41:34;243.45;;;29.00;;
71496;SDS011;59317;53.218;5.730;2022-12-10T09:43:44;175.25;;;23.83;;
71496;SDS011;59317;53.218;5.730;2022-12-10T09:49:02;260.90;;;28.90;;
71496;SDS011;59317;53.218;5.730;2022-12-10T09:51:34;218.68;;;27.75;;
71496;SDS011;59317;53.218;5.730;2022-12-10T09:54:02;269.85;;;30.40;;
71496;SDS011;59317;53.218;5.730;2022-12-10T09:56:32;244.13;;;29.55;;
71496;SDS011;59317;53.218;5.730;2022-12-10T09:59:00;240.95;;;29.95;;
71496;SDS011;59317;53.218;5.730;2022-12-10T10:01:28;264.10;;;29.60;;
71496;SDS011;59317;53.218;5.730;2022-12-10T10:03:55;276.85;;;32.45;;
71496;SDS011;59317;53.218;5.730;2022-12-10T10:06:21;266.92;;;32.28;;
71496;SDS011;59317;53.218;5.730;2022-12-10T10:08:51;249.98;;;29.92;;
71496;SDS011;59317;53.218;5.730;2022-12-10T10:11:20;189.05;;;23.63;;
71496;SDS011;59317;53.218;5.730;2022-12-10T10:16:22;158.40;;;23.10;;
71496;SDS011;59317;53.218;5.730;2022-12-10T10:18:56;235.43;;;29.38;;
71496;SDS011;59317;53.218;5.730;2022-12-10T10:21:25;210.93;;;29.20;;
71496;SDS011;59317;53.218;5.730;2022-12-10T10:23:52;197.05;;;29.23;;
71496;SDS011;59317;53.218;5.730;2022-12-10T10:26:19;161.68;;;22.17;;
71496;SDS011;59317;53.218;5.730;2022-12-10T10:28:45;161.05;;;23.58;;
71496;SDS011;59317;53.218;5.730;2022-12-10T10:31:16;244.18;;;30.70;;
71496;SDS011;59317;53.218;5.730;2022-12-10T10:33:47;238.97;;;29.03;;
71496;SDS011;59317;53.218;5.730;2022-12-10T10:36:14;253.93;;;30.77;;
71496;SDS011;59317;53.218;5.730;2022-12-10T10:38:43;249.35;;;29.90;;
71496;SDS011;59317;53.218;5.730;2022-12-10T10:41:12;193.80;;;25.40;;
71496;SDS011;59317;53.218;5.730;2022-12-10T10:43:40;210.15;;;25.35;;
71496;SDS011;59317;53.218;5.730;2022-12-10T10:46:39;224.38;;;26.45;;
71496;SDS011;59317;53.218;5.730;2022-12-10T10:49:11;207.03;;;26.17;;
71496;SDS011;59317;53.218;5.730;2022-12-10T10:51:41;206.85;;;25.33;;
71496;SDS011;59317;53.218;5.730;2022-12-10T10:54:07;163.52;;;25.40;;
71496;SDS011;59317;53.218;5.730;2022-12-10T10:56:40;183.15;;;25.95;;
71496;SDS011;59317;53.218;5.730;2022-12-10T11:01:44;127.13;;;21.80;;
71496;SDS011;59317;53.218;5.730;2022-12-10T11:04:10;170.75;;;25.42;;
71496;SDS011;59317;53.218;5.730;2022-12-10T11:06:36;163.60;;;24.97;;
71496;SDS011;59317;53.218;5.730;2022-12-10T11:09:02;237.60;;;31.40;;
71496;SDS011;59317;53.218;5.730;2022-12-10T11:11:39;206.20;;;28.25;;
71496;SDS011;59317;53.218;5.730;2022-12-10T11:14:15;181.20;;;25.00;;
71496;SDS011;59317;53.218;5.730;2022-12-10T11:16:41;205.27;;;26.27;;
71496;SDS011;59317;53.218;5.730;2022-12-10T11:19:16;190.93;;;26.42;;
71496;SDS011;59317;53.218;5.730;2022-12-10T11:21:44;147.88;;;27.02;;
71496;SDS011;59317;53.218;5.730;2022-12-10T11:24:10;118.55;;;23.38;;
71496;SDS011;59317;53.218;5.730;2022-12-10T11:29:16;161.67;;;28.27;;
71496;SDS011;59317;53.218;5.730;2022-12-10T11:34:34;120.60;;;23.17;;
71496;SDS011;59317;53.218;5.730;2022-12-10T11:45:20;136.48;;;27.48;;
71496;SDS011;59317;53.218;5.730;2022-12-10T12:01:19;115.13;;;24.67;;
71496;SDS011;59317;53.218;5.730;2022-12-10T12:03:29;89.97;;;20.55;;
71496;SDS011;59317;53.218;5.730;2022-12-10T12:13:58;111.97;;;26.57;;
71496;SDS011;59317;53.218;5.730;2022-12-10T12:16:28;108.25;;;25.70;;
71496;SDS011;59317;53.218;5.730;2022-12-10T12:18:59;115.40;;;27.90;;
71496;SDS011;59317;53.218;5.730;2022-12-10T12:21:26;116.72;;;27.05;;
71496;SDS011;59317;53.218;5.730;2022-12-10T12:26:32;108.18;;;24.75;;
71496;SDS011;59317;53.218;5.730;2022-12-10T12:31:30;100.63;;;23.20;;
71496;SDS011;59317;53.218;5.730;2022-12-10T12:36:39;118.80;;;28.55;;
71496;SDS011;59317;53.218;5.730;2022-12-10T12:41:37;120.93;;;29.27;;
71496;SDS011;59317;53.218;5.730;2022-12-10T12:46:47;80.50;;;22.92;;
71496;SDS011;59317;53.218;5.730;2022-12-10T12:49:22;80.72;;;24.13;;
71496;SDS011;59317;53.218;5.730;2022-12-10T12:54:18;86.13;;;24.98;;
71496;SDS011;59317;53.218;5.730;2022-12-10T13:04:16;72.90;;;21.77;;
71496;SDS011;59317;53.218;5.730;2022-12-10T13:06:42;75.90;;;22.40;;
71496;SDS011;59317;53.218;5.730;2022-12-10T13:09:28;98.13;;;26.90;;
71496;SDS011;59317;53.218;5.730;2022-12-10T13:14:29;79.45;;;22.88;;
71496;SDS011;59317;53.218;5.730;2022-12-10T13:17:07;96.05;;;25.08;;
71496;SDS011;59317;53.218;5.730;2022-12-10T13:19:33;103.03;;;25.38;;
71496;SDS011;59317;53.218;5.730;2022-12-10T13:22:02;100.70;;;26.10;;
71496;SDS011;59317;53.218;5.730;2022-12-10T13:32:19;105.50;;;23.80;;
71496;SDS011;59317;53.218;5.730;2022-12-10T13:34:46;88.72;;;22.13;;
71496;SDS011;59317;53.218;5.730;2022-12-10T13:37:14;88.93;;;22.33;;
71496;SDS011;59317;53.218;5.730;2022-12-10T13:42:27;82.05;;;21.67;;
71496;SDS011;59317;53.218;5.730;2022-12-10T13:47:49;78.68;;;20.85;;
71496;SDS011;59317;53.218;5.730;2022-12-10T13:50:18;82.30;;;21.65;;
71496;SDS011;59317;53.218;5.730;2022-12-10T13:52:52;85.32;;;21.88;;
71496;SDS011;59317;53.218;5.730;2022-12-10T13:55:35;107.05;;;24.35;;
71496;SDS011;59317;53.218;5.730;2022-12-10T14:00:46;79.20;;;20.83;;
71496;SDS011;59317;53.218;5.730;2022-12-10T14:03:27;106.03;;;24.45;;
71496;SDS011;59317;53.218;5.730;2022-12-10T14:08:32;90.97;;;21.70;;
71496;SDS011;59317;53.218;5.730;2022-12-10T14:10:59;88.50;;;22.17;;
71496;SDS011;59317;53.218;5.730;2022-12-10T14:13:31;110.25;;;26.30;;
71496;SDS011;59317;53.218;5.730;2022-12-10T14:15:58;94.45;;;21.98;;
71496;SDS011;59317;53.218;5.730;2022-12-10T14:18:27;93.85;;;21.25;;
71496;SDS011;59317;53.218;5.730;2022-12-10T14:20:53;118.70;;;23.33;;
71496;SDS011;59317;53.218;5.730;2022-12-10T14:23:28;83.30;;;19.95;;
71496;SDS011;59317;53.218;5.730;2022-12-10T14:25:58;96.57;;;23.20;;
71496;SDS011;59317;53.218;5.730;2022-12-10T14:28:24;88.40;;;22.13;;
71496;SDS011;59317;53.218;5.730;2022-12-10T14:30:50;89.50;;;21.47;;
71496;SDS011;59317;53.218;5.730;2022-12-10T14:33:20;100.32;;;22.58;;
71496;SDS011;59317;53.218;5.730;2022-12-10T14:35:47;96.63;;;22.00;;
71496;SDS011;59317;53.218;5.730;2022-12-10T14:38:17;107.72;;;21.42;;
71496;SDS011;59317;53.218;5.730;2022-12-10T14:40:45;92.97;;;19.75;;
71496;SDS011;59317;53.218;5.730;2022-12-10T14:43:13;110.25;;;22.67;;
71496;SDS011;59317;53.218;5.730;2022-12-10T14:45:51;102.63;;;22.17;;
71496;SDS011;59317;53.218;5.730;2022-12-10T14:48:18;111.85;;;22.15;;
71496;SDS011;59317;53.218;5.730;2022-12-10T14:50:44;120.78;;;23.20;;
71496;SDS011;59317;53.218;5.730;2022-12-10T14:53:15;108.40;;;20.92;;
71496;SDS011;59317;53.218;5.730;2022-12-10T14:55:42;97.38;;;21.55;;
71496;SDS011;59317;53.218;5.730;2022-12-10T14:58:09;84.32;;;19.33;;
71496;SDS011;59317;53.218;5.730;2022-12-10T15:00:41;134.25;;;23.67;;
71496;SDS011;59317;53.218;5.730;2022-12-10T15:03:08;104.97;;;21.17;;
71496;SDS011;59317;53.218;5.730;2022-12-10T15:05:35;100.00;;;21.73;;
71496;SDS011;59317;53.218;5.730;2022-12-10T15:08:05;99.43;;;20.27;;
71496;SDS011;59317;53.218;5.730;2022-12-10T15:10:32;60.30;;;16.65;;
71496;SDS011;59317;53.218;5.730;2022-12-10T15:12:59;94.95;;;20.50;;
71496;SDS011;59317;53.218;5.730;2022-12-10T15:15:29;125.57;;;22.50;;
71496;SDS011;59317;53.218;5.730;2022-12-10T15:20:23;114.32;;;22.25;;
71496;SDS011;59317;53.218;5.730;2022-12-10T15:22:49;108.13;;;21.83;;
71496;SDS011;59317;53.218;5.730;2022-12-10T15:25:26;108.93;;;21.77;;
71496;SDS011;59317;53.218;5.730;2022-12-10T15:27:57;116.45;;;20.88;;
71496;SDS011;59317;53.218;5.730;2022-12-10T15:30:28;98.40;;;20.10;;
71496;SDS011;59317;53.218;5.730;2022-12-10T15:32:57;88.40;;;20.20;;
71496;SDS011;59317;53.218;5.730;2022-12-10T15:35:23;89.38;;;19.15;;
71496;SDS011;59317;53.218;5.730;2022-12-10T15:37:49;93.03;;;19.90;;
71496;SDS011;59317;53.218;5.730;2022-12-10T15:40:34;90.32;;;19.85;;
71496;SDS011;59317;53.218;5.730;2022-12-10T15:43:11;85.32;;;20.70;;
71496;SDS011;59317;53.218;5.730;2022-12-10T15:45:39;105.68;;;24.17;;
71496;SDS011;59317;53.218;5.730;2022-12-10T15:48:09;119.28;;;23.77;;
71496;SDS011;59317;53.218;5.730;2022-12-10T15:50:35;139.95;;;23.08;;
71496;SDS011;59317;53.218;5.730;2022-12-10T15:53:01;96.63;;;21.55;;
71496;SDS011;59317;53.218;5.730;2022-12-10T15:55:27;123.45;;;21.52;;
71496;SDS011;59317;53.218;5.730;2022-12-10T15:57:53;163.70;;;25.08;;
71496;SDS011;59317;53.218;5.730;2022-12-10T16:00:23;127.72;;;21.90;;
71496;SDS011;59317;53.218;5.730;2022-12-10T16:03:00;132.27;;;22.42;;
71496;SDS011;59317;53.218;5.730;2022-12-10T16:05:34;124.13;;;23.55;;